createdAt,value
2023-07-04T00:01:07.671Z,1.45
2023-07-04T00:03:36.234Z,2.03
2023-07-04T00:06:06.990Z,2.00
2023-07-04T00:08:35.475Z,2.10
2023-07-04T00:11:04.492Z,1.85
2023-07-04T00:13:33.360Z,2.22
2023-07-04T00:16:01.460Z,1.80
2023-07-04T00:18:29.791Z,1.23
2023-07-04T00:21:05.143Z,1.70
2023-07-04T00:23:38.012Z,1.88
2023-07-04T00:26:09.404Z,2.00
2023-07-04T00:28:40.169Z,1.90
2023-07-04T00:31:08.944Z,1.48
2023-07-04T00:33:36.738Z,2.47
2023-07-04T00:36:06.394Z,2.15
2023-07-04T00:38:34.413Z,2.20
2023-07-04T00:41:02.566Z,2.55
2023-07-04T00:44:03.079Z,2.08
2023-07-04T00:46:39.022Z,1.80
2023-07-04T00:49:19.351Z,2.15
2023-07-04T00:52:05.377Z,2.25
2023-07-04T00:54:51.532Z,1.77
2023-07-04T00:57:18.914Z,1.80
2023-07-04T00:59:49.489Z,2.03
2023-07-04T01:02:19.684Z,2.55
2023-07-04T01:04:48.814Z,1.83
2023-07-04T01:07:39.730Z,1.90
2023-07-04T01:10:17.968Z,1.65
2023-07-04T01:12:45.715Z,1.45
2023-07-04T01:15:13.489Z,2.25
2023-07-04T01:17:43.583Z,1.83
2023-07-04T01:20:13.853Z,2.20
2023-07-04T01:23:04.575Z,1.98
2023-07-04T01:25:37.667Z,1.75
2023-07-04T01:28:06.753Z,2.60
2023-07-04T01:30:40.086Z,2.17
2023-07-04T01:33:09.967Z,2.03
2023-07-04T01:35:38.001Z,2.22
2023-07-04T01:38:07.289Z,2.00
2023-07-04T01:40:36.354Z,2.70
2023-07-04T01:43:04.940Z,2.38
2023-07-04T01:45:32.181Z,2.10
2023-07-04T01:47:59.437Z,2.25
2023-07-04T01:50:26.839Z,2.17
2023-07-04T01:52:54.050Z,1.85
2023-07-04T01:55:21.666Z,2.03
2023-07-04T01:57:48.972Z,2.30
2023-07-04T02:00:16.432Z,2.10
2023-07-04T02:02:57.161Z,1.70
2023-07-04T02:05:24.733Z,2.17
2023-07-04T02:07:51.921Z,1.90
2023-07-04T02:10:19.309Z,2.13
2023-07-04T02:12:46.570Z,2.10
2023-07-04T02:15:14.040Z,1.67
2023-07-04T02:17:41.652Z,2.15
2023-07-04T02:20:10.390Z,1.60
2023-07-04T02:22:42.554Z,1.90
2023-07-04T02:25:10.490Z,1.83
2023-07-04T02:27:38.242Z,1.95
2023-07-04T02:30:06.215Z,1.48
2023-07-04T02:32:33.481Z,1.60
2023-07-04T02:35:01.409Z,1.80
2023-07-04T02:37:29.320Z,2.25
2023-07-04T02:39:57.477Z,2.40
2023-07-04T02:42:26.354Z,2.78
2023-07-04T02:44:55.502Z,2.83
2023-07-04T02:47:27.896Z,1.85
2023-07-04T02:50:00.343Z,1.85
2023-07-04T02:52:28.383Z,2.22
2023-07-04T02:54:55.615Z,1.90
2023-07-04T02:57:23.190Z,2.25
2023-07-04T02:59:51.220Z,1.95
2023-07-04T03:02:19.811Z,1.83
2023-07-04T03:04:49.093Z,2.40
2023-07-04T03:07:17.115Z,1.95
2023-07-04T03:09:45.307Z,2.58
2023-07-04T03:12:13.483Z,2.20
2023-07-04T03:14:40.648Z,2.72
2023-07-04T03:17:08.738Z,2.65
2023-07-04T03:19:37.675Z,2.25
2023-07-04T03:22:05.182Z,2.33
2023-07-04T03:24:32.604Z,2.28
2023-07-04T03:27:00.560Z,2.25
2023-07-04T03:29:27.812Z,2.28
2023-07-04T03:31:55.921Z,2.45
2023-07-04T03:34:25.068Z,2.15
2023-07-04T03:36:52.621Z,2.38
2023-07-04T03:39:19.761Z,2.55
2023-07-04T03:41:47.018Z,2.15
2023-07-04T03:44:14.138Z,2.17
2023-07-04T03:46:41.315Z,2.13
2023-07-04T03:49:08.550Z,2.40
2023-07-04T03:51:35.709Z,2.55
2023-07-04T03:54:02.905Z,3.10
2023-07-04T03:56:30.124Z,3.13
2023-07-04T03:58:57.684Z,2.40
2023-07-04T04:01:25.796Z,2.75
2023-07-04T04:03:55.269Z,2.80
2023-07-04T04:06:22.917Z,2.10
2023-07-04T04:08:50.379Z,2.53
2023-07-04T04:11:17.515Z,3.05
2023-07-04T04:13:45.895Z,2.22
2023-07-04T04:16:13.696Z,2.35
2023-07-04T04:18:41.012Z,3.10
2023-07-04T04:21:08.866Z,2.60
2023-07-04T04:23:35.993Z,2.72
2023-07-04T04:26:04.796Z,2.25
2023-07-04T04:28:32.135Z,2.58
2023-07-04T04:30:59.452Z,2.70
2023-07-04T04:33:26.695Z,2.75
2023-07-04T04:35:53.858Z,2.50
2023-07-04T04:38:21.010Z,2.55
2023-07-04T04:40:48.221Z,2.35
2023-07-04T04:43:15.368Z,2.50
2023-07-04T04:45:42.832Z,1.92
2023-07-04T04:48:10.061Z,2.58
2023-07-04T04:50:37.374Z,1.98
2023-07-04T04:53:04.487Z,2.42
2023-07-04T04:55:31.643Z,2.55
2023-07-04T04:57:58.831Z,2.38
2023-07-04T05:00:26.050Z,2.35
2023-07-04T05:02:56.219Z,2.88
2023-07-04T05:05:23.738Z,2.25
2023-07-04T05:07:51.132Z,3.15
2023-07-04T05:10:18.345Z,2.47
2023-07-04T05:12:45.533Z,1.77
2023-07-04T05:15:12.673Z,2.25
2023-07-04T05:17:40.333Z,2.58
2023-07-04T05:20:08.298Z,2.50
2023-07-04T05:22:35.652Z,2.60
2023-07-04T05:25:02.815Z,2.20
2023-07-04T05:27:29.975Z,2.05
2023-07-04T05:29:57.229Z,2.40
2023-07-04T05:32:24.576Z,2.50
2023-07-04T05:34:51.873Z,2.05
2023-07-04T05:37:19.062Z,2.95
2023-07-04T05:39:46.326Z,1.92
2023-07-04T05:42:13.852Z,2.97
2023-07-04T05:44:41.165Z,3.00
2023-07-04T05:47:08.655Z,2.25
2023-07-04T05:49:35.966Z,2.03
2023-07-04T05:52:03.452Z,2.83
2023-07-04T05:54:30.710Z,2.75
2023-07-04T05:56:57.972Z,3.00
2023-07-04T05:59:25.175Z,2.92
2023-07-04T06:01:52.893Z,2.28
2023-07-04T06:04:20.378Z,2.50
2023-07-04T06:06:54.689Z,3.35
2023-07-04T06:09:23.926Z,2.92
2023-07-04T06:11:51.655Z,2.75
2023-07-04T06:14:27.778Z,2.92
2023-07-04T06:16:59.084Z,2.67
2023-07-04T06:19:27.024Z,2.43
2023-07-04T06:21:54.465Z,2.58
2023-07-04T06:24:22.250Z,3.03
2023-07-04T06:26:50.741Z,3.17
2023-07-04T06:29:18.307Z,2.50
2023-07-04T06:31:45.731Z,2.30
2023-07-04T06:34:13.944Z,2.05
2023-07-04T06:36:42.213Z,2.17
2023-07-04T06:39:09.686Z,2.72
2023-07-04T06:41:36.879Z,2.38
2023-07-04T06:44:05.751Z,1.80
2023-07-04T06:46:33.023Z,2.13
2023-07-04T06:49:00.268Z,2.83
2023-07-04T06:51:31.716Z,2.38
2023-07-04T06:53:59.215Z,2.03
2023-07-04T06:56:26.451Z,2.60
2023-07-04T06:58:56.030Z,2.22
2023-07-04T07:01:28.416Z,2.47
2023-07-04T07:03:56.913Z,2.20
2023-07-04T07:06:24.840Z,2.17
2023-07-04T07:08:52.128Z,2.30
2023-07-04T07:11:21.200Z,2.10
2023-07-04T07:13:48.430Z,2.20
2023-07-04T07:16:18.404Z,2.70
2023-07-04T07:18:47.465Z,2.53
2023-07-04T07:21:19.536Z,2.55
2023-07-04T07:26:20.178Z,1.95
2023-07-04T07:28:50.205Z,2.90
2023-07-04T07:31:27.787Z,2.72
2023-07-04T07:33:55.665Z,2.90
2023-07-04T07:36:38.435Z,1.65
2023-07-04T07:39:08.654Z,2.28
2023-07-04T07:41:38.726Z,1.70
2023-07-04T07:44:07.725Z,1.88
2023-07-04T07:46:35.614Z,2.42
2023-07-04T07:49:02.865Z,2.97
2023-07-04T07:51:30.786Z,1.80
2023-07-04T07:53:59.191Z,1.88
2023-07-04T07:56:31.320Z,1.85
2023-07-04T07:58:59.386Z,2.08
2023-07-04T08:01:32.455Z,1.90
2023-07-04T08:04:00.373Z,2.10
2023-07-04T08:06:27.551Z,2.00
2023-07-04T08:08:56.519Z,2.05
2023-07-04T08:11:24.160Z,1.65
2023-07-04T08:13:51.754Z,2.20
2023-07-04T08:16:28.129Z,1.80
2023-07-04T08:18:56.073Z,2.17
2023-07-04T08:21:24.751Z,2.10
2023-07-04T08:23:52.213Z,1.95
2023-07-04T08:26:22.471Z,2.38
2023-07-04T08:28:50.291Z,1.83
2023-07-04T08:31:20.007Z,2.05
2023-07-04T08:33:48.098Z,2.05
2023-07-04T08:36:16.726Z,2.53
2023-07-04T08:38:44.952Z,2.10
2023-07-04T08:41:54.085Z,2.00
2023-07-04T08:44:36.492Z,2.33
2023-07-04T08:47:04.496Z,2.30
2023-07-04T08:49:52.024Z,2.00
2023-07-04T08:52:24.253Z,1.90
2023-07-04T08:57:30.664Z,2.25
2023-07-04T09:00:05.877Z,1.73
2023-07-04T09:02:36.788Z,2.10
2023-07-04T09:05:30.827Z,2.13
2023-07-04T09:08:33.444Z,2.15
2023-07-04T09:11:04.970Z,1.40
2023-07-04T09:13:54.517Z,1.50
2023-07-04T09:16:50.236Z,2.22
2023-07-04T09:19:20.674Z,1.95
2023-07-04T09:21:48.484Z,1.60
2023-07-04T09:24:15.816Z,1.75
2023-07-04T09:26:48.265Z,1.50
2023-07-04T09:29:18.964Z,1.77
2023-07-04T09:31:47.990Z,1.25
2023-07-04T09:34:36.226Z,2.00
2023-07-04T09:37:11.731Z,1.63
2023-07-04T09:40:09.166Z,1.80
2023-07-04T09:42:47.900Z,1.88
2023-07-04T09:45:22.653Z,1.75
2023-07-04T09:47:50.102Z,2.65
2023-07-04T09:50:25.060Z,2.03
2023-07-04T09:53:12.556Z,2.03
2023-07-04T09:55:41.044Z,2.45
2023-07-04T09:58:23.740Z,1.80
2023-07-04T10:01:10.283Z,1.88
2023-07-04T10:03:42.696Z,2.33
2023-07-04T10:06:11.171Z,2.22
2023-07-04T10:08:56.962Z,2.08
2023-07-04T10:11:34.142Z,2.20
2023-07-04T10:14:08.123Z,1.88
2023-07-04T10:16:36.429Z,2.50
2023-07-04T10:19:11.553Z,2.33
2023-07-04T10:21:49.657Z,2.88
2023-07-04T10:24:21.321Z,2.10
2023-07-04T10:26:52.925Z,2.47
2023-07-04T10:29:29.424Z,2.80
2023-07-04T10:32:02.645Z,2.00
2023-07-04T10:34:31.632Z,2.67
2023-07-04T10:36:59.332Z,2.40
2023-07-04T10:39:27.739Z,2.67
2023-07-04T10:41:59.754Z,2.47
2023-07-04T10:44:30.757Z,2.50
2023-07-04T10:47:01.491Z,2.28
2023-07-04T10:49:31.772Z,2.65
2023-07-04T10:52:28.060Z,2.85
2023-07-04T10:54:55.279Z,3.47
2023-07-04T10:57:32.485Z,2.95
2023-07-04T11:00:23.387Z,2.97
2023-07-04T11:03:01.323Z,4.05
2023-07-04T11:05:40.232Z,3.20
2023-07-04T11:08:16.412Z,2.53
2023-07-04T11:10:46.362Z,2.70
2023-07-04T11:13:22.591Z,3.28
2023-07-04T11:15:58.358Z,4.22
2023-07-04T11:18:38.970Z,2.83
2023-07-04T11:21:15.522Z,3.67
2023-07-04T11:23:52.978Z,2.83
2023-07-04T11:26:41.189Z,3.40
2023-07-04T11:29:16.537Z,3.30
2023-07-04T11:32:03.524Z,4.13
2023-07-04T11:34:52.202Z,4.00
2023-07-04T11:37:31.526Z,3.28
2023-07-04T11:40:04.030Z,3.58
2023-07-04T11:42:39.762Z,4.13
2023-07-04T11:45:12.983Z,3.45
2023-07-04T11:47:56.880Z,4.22
2023-07-04T11:50:46.148Z,4.22
2023-07-04T11:53:43.152Z,3.90
2023-07-04T11:56:20.476Z,3.78
2023-07-04T11:58:48.446Z,3.63
2023-07-04T12:01:17.088Z,3.85
2023-07-04T12:03:55.993Z,3.85
2023-07-04T12:06:47.096Z,3.63
2023-07-04T12:09:29.750Z,3.70
2023-07-04T12:11:58.963Z,4.63
2023-07-04T12:14:26.884Z,4.95
2023-07-04T12:16:59.273Z,3.80
2023-07-04T12:19:26.782Z,3.47
2023-07-04T12:21:54.314Z,3.75
2023-07-04T12:24:25.447Z,3.65
2023-07-04T12:26:58.744Z,3.92
2023-07-04T12:30:02.354Z,5.18
2023-07-04T12:32:19.548Z,4.75
2023-07-04T12:37:20.701Z,4.00
2023-07-04T12:39:50.784Z,3.67
2023-07-04T12:42:30.731Z,4.35
2023-07-04T12:44:58.544Z,3.65
2023-07-04T12:47:30.819Z,4.22
2023-07-04T12:50:03.702Z,4.18
2023-07-04T12:52:34.298Z,3.70
2023-07-04T12:55:03.429Z,4.30
2023-07-04T12:57:32.511Z,5.35
2023-07-04T13:00:27.928Z,3.95
2023-07-04T13:02:58.683Z,4.75
2023-07-04T13:05:30.142Z,4.57
2023-07-04T13:07:57.648Z,4.57
2023-07-04T13:10:29.945Z,4.70
2023-07-04T13:12:57.495Z,5.18
2023-07-04T13:15:28.509Z,4.53
2023-07-04T13:17:59.837Z,4.50
2023-07-04T13:20:29.233Z,4.97
2023-07-04T13:33:34.618Z,4.68
2023-07-04T13:36:14.848Z,3.85
2023-07-04T13:41:15.747Z,3.40
2023-07-04T13:46:13.997Z,4.05
2023-07-04T13:48:41.376Z,4.63
2023-07-04T13:51:09.069Z,4.10
2023-07-04T13:53:37.009Z,4.35
2023-07-04T13:56:04.721Z,4.88
2023-07-04T13:58:31.960Z,4.70
2023-07-04T14:06:04.290Z,4.22
2023-07-04T14:08:33.385Z,3.80
2023-07-04T14:11:08.368Z,4.43
2023-07-04T14:13:36.157Z,4.82
2023-07-04T14:21:09.549Z,4.10
2023-07-04T14:23:37.373Z,3.92
2023-07-04T14:26:04.954Z,4.93
2023-07-04T14:28:32.183Z,5.28
2023-07-04T14:30:59.574Z,3.63
2023-07-04T14:33:29.816Z,4.88
2023-07-04T14:35:57.204Z,3.97
2023-07-04T14:38:24.549Z,4.45
2023-07-04T14:43:21.848Z,3.50
2023-07-04T14:46:07.865Z,3.47
2023-07-04T14:48:35.686Z,3.17
2023-07-04T14:51:06.037Z,3.38
2023-07-04T14:53:34.746Z,3.13
2023-07-04T14:56:13.304Z,3.78
2023-07-04T14:58:41.282Z,3.08
2023-07-04T15:01:14.047Z,3.20
2023-07-04T15:03:41.316Z,3.33
2023-07-04T15:06:09.287Z,3.22
2023-07-04T15:08:37.189Z,3.40
2023-07-04T15:11:05.371Z,2.97
2023-07-04T15:13:33.690Z,4.43
2023-07-04T15:16:04.248Z,3.72
2023-07-04T15:18:37.831Z,3.95
2023-07-04T15:21:07.094Z,2.72
2023-07-04T15:23:35.148Z,3.15
2023-07-04T15:26:20.121Z,3.15
2023-07-04T15:28:52.197Z,2.83
2023-07-04T15:31:19.781Z,3.20
2023-07-04T15:33:47.540Z,3.22
2023-07-04T15:36:17.474Z,2.78
2023-07-04T15:38:44.777Z,3.47
2023-07-04T15:41:12.336Z,3.22
2023-07-04T15:43:40.660Z,2.83
2023-07-04T15:46:13.363Z,3.00
2023-07-04T15:48:41.901Z,3.38
2023-07-04T15:51:15.202Z,2.70
2023-07-04T15:53:43.576Z,3.00
2023-07-04T15:56:14.164Z,2.92
2023-07-04T15:58:42.278Z,3.95
2023-07-04T16:01:11.583Z,3.92
2023-07-04T16:03:39.901Z,3.20
2023-07-04T16:06:09.741Z,4.35
2023-07-04T16:08:38.750Z,3.22
2023-07-04T16:11:09.113Z,4.05
2023-07-04T16:13:36.869Z,4.13
2023-07-04T16:16:04.312Z,3.33
2023-07-04T16:18:31.571Z,2.88
2023-07-04T16:20:59.213Z,2.40
2023-07-04T16:23:26.575Z,3.47
2023-07-04T16:25:54.084Z,3.42
2023-07-04T16:28:22.444Z,3.58
2023-07-04T16:30:50.365Z,3.63
2023-07-04T16:33:17.709Z,3.83
2023-07-04T16:35:45.205Z,2.63
2023-07-04T16:38:13.085Z,3.83
2023-07-04T16:40:40.477Z,3.25
2023-07-04T16:43:08.763Z,3.28
2023-07-04T16:45:36.010Z,3.25
2023-07-04T16:48:04.515Z,3.53
2023-07-04T16:50:34.396Z,3.17
2023-07-04T16:55:36.171Z,2.45
2023-07-04T16:58:04.192Z,2.78
2023-07-04T17:00:32.143Z,2.65
2023-07-04T17:02:59.582Z,3.28
2023-07-04T17:05:26.911Z,3.40
2023-07-04T17:07:54.803Z,4.00
2023-07-04T17:10:22.039Z,3.35
2023-07-04T17:12:49.601Z,3.15
2023-07-04T17:15:16.944Z,3.08
2023-07-04T17:17:44.183Z,3.28
2023-07-04T17:20:11.955Z,3.42
2023-07-04T17:22:39.475Z,3.22
2023-07-04T17:25:13.014Z,2.95
2023-07-04T17:27:41.297Z,3.40
2023-07-04T17:30:09.109Z,3.53
2023-07-04T17:32:36.599Z,3.63
2023-07-04T17:35:04.881Z,4.03
2023-07-04T17:37:32.245Z,3.45
2023-07-04T17:39:59.780Z,3.17
2023-07-04T17:42:27.933Z,3.08
2023-07-04T17:44:55.086Z,3.38
2023-07-04T17:47:22.448Z,3.58
2023-07-04T17:49:49.640Z,4.10
2023-07-04T17:52:16.818Z,4.05
2023-07-04T17:54:44.061Z,3.28
2023-07-04T17:57:26.225Z,3.05
2023-07-04T17:59:56.422Z,3.05
2023-07-04T18:02:23.991Z,3.08
2023-07-04T18:04:55.659Z,3.92
2023-07-04T18:07:24.288Z,2.65
2023-07-04T18:09:53.005Z,3.00
2023-07-04T18:12:25.133Z,2.63
2023-07-04T18:14:54.993Z,3.70
2023-07-04T18:17:22.679Z,2.72
2023-07-04T18:19:55.586Z,4.00
2023-07-04T18:22:26.990Z,3.10
2023-07-04T18:24:55.195Z,3.00
2023-07-04T18:27:23.224Z,3.25
2023-07-04T18:29:55.740Z,2.67
2023-07-04T18:32:23.989Z,2.60
2023-07-04T18:34:55.990Z,3.83
2023-07-04T18:37:24.816Z,3.35
2023-07-04T18:39:52.246Z,2.92
2023-07-04T18:42:19.725Z,3.15
2023-07-04T18:44:47.075Z,3.47
2023-07-04T18:47:14.337Z,3.55
2023-07-04T18:49:42.008Z,3.20
2023-07-04T18:52:09.637Z,2.97
2023-07-04T18:54:38.389Z,2.95
2023-07-04T18:57:07.198Z,3.30
2023-07-04T18:59:35.223Z,3.70
2023-07-04T19:02:02.510Z,3.05
2023-07-04T19:04:29.821Z,2.63
2023-07-04T19:06:57.023Z,2.92
2023-07-04T19:09:30.909Z,2.30
2023-07-04T19:11:58.299Z,2.33
2023-07-04T19:14:25.722Z,3.13
2023-07-04T19:16:58.968Z,2.53
2023-07-04T19:19:34.779Z,2.60
2023-07-04T19:22:08.472Z,3.88
2023-07-04T19:24:38.535Z,2.50
2023-07-04T19:27:08.317Z,3.53
2023-07-04T19:29:35.737Z,2.95
2023-07-04T19:32:03.441Z,3.10
2023-07-04T19:34:31.544Z,3.60
2023-07-04T19:37:00.155Z,2.53
2023-07-04T19:39:30.718Z,2.60
2023-07-04T19:41:58.159Z,2.80
2023-07-04T19:44:27.945Z,3.47
2023-07-04T19:46:55.641Z,3.60
2023-07-04T19:49:24.167Z,3.60
2023-07-04T19:51:51.573Z,3.85
2023-07-04T19:54:19.300Z,3.50
2023-07-04T19:56:46.506Z,3.35
2023-07-04T19:59:13.810Z,3.80
2023-07-04T20:01:41.134Z,3.03
2023-07-04T20:04:08.467Z,3.30
2023-07-04T20:06:38.449Z,3.42
2023-07-04T20:09:06.281Z,2.88
2023-07-04T20:11:33.738Z,2.95
2023-07-04T20:14:01.324Z,2.20
2023-07-04T20:16:31.606Z,3.40
2023-07-04T20:18:59.768Z,3.92
2023-07-04T20:21:28.243Z,3.20
2023-07-04T20:23:55.679Z,2.85
2023-07-04T20:26:23.243Z,3.20
2023-07-04T20:28:50.785Z,2.97
2023-07-04T20:31:18.451Z,3.17
2023-07-04T20:33:45.826Z,3.17
2023-07-04T20:36:13.184Z,3.53
2023-07-04T20:38:41.271Z,3.22
2023-07-04T20:41:10.926Z,4.03
2023-07-04T20:43:38.181Z,4.75
2023-07-04T20:46:06.257Z,3.22
2023-07-04T20:48:34.632Z,3.58
2023-07-04T20:51:09.030Z,3.83
2023-07-04T20:53:41.103Z,3.23
2023-07-04T20:56:09.720Z,3.63
2023-07-04T20:58:37.439Z,3.88
2023-07-04T21:01:04.886Z,3.70
2023-07-04T21:03:32.299Z,3.90
2023-07-04T21:06:04.148Z,3.55
2023-07-04T21:08:31.896Z,4.30
2023-07-04T21:11:08.807Z,5.80
2023-07-04T21:13:38.969Z,5.43
2023-07-04T21:16:12.269Z,5.53
2023-07-04T21:18:42.360Z,4.28
2023-07-04T21:21:10.641Z,5.05
2023-07-04T21:23:38.572Z,5.80
2023-07-04T21:26:07.186Z,5.20
2023-07-04T21:28:35.434Z,5.93
2023-07-04T21:31:08.135Z,5.70
2023-07-04T21:33:36.292Z,6.70
2023-07-04T21:36:04.294Z,4.30
2023-07-04T21:38:35.381Z,3.75
2023-07-04T21:41:03.891Z,3.22
2023-07-04T21:43:31.635Z,2.60
2023-07-04T21:45:59.361Z,2.80
2023-07-04T21:48:27.873Z,3.63
2023-07-04T21:50:57.225Z,3.15
2023-07-04T21:53:25.413Z,3.17
2023-07-04T21:55:53.351Z,3.05
2023-07-04T21:58:22.314Z,2.95
2023-07-04T22:00:50.254Z,3.03
2023-07-04T22:03:18.865Z,2.35
2023-07-04T22:05:46.817Z,2.13
2023-07-04T22:08:15.346Z,2.83
2023-07-04T22:10:43.190Z,2.35
2023-07-04T22:13:12.961Z,2.78
2023-07-04T22:15:41.050Z,2.47
2023-07-04T22:18:08.368Z,2.67
2023-07-04T22:20:37.130Z,3.40
2023-07-04T22:23:04.445Z,3.13
2023-07-04T22:25:33.101Z,3.20
2023-07-04T22:28:00.370Z,3.78
2023-07-04T22:30:29.053Z,3.45
2023-07-04T22:32:56.496Z,2.88
2023-07-04T22:35:23.741Z,3.55
2023-07-04T22:37:51.122Z,4.05
2023-07-04T22:40:18.344Z,3.17
2023-07-04T22:42:45.483Z,3.45
2023-07-04T22:45:12.822Z,2.90
2023-07-04T22:47:40.089Z,2.65
2023-07-04T22:50:07.507Z,2.75
2023-07-04T22:52:34.730Z,2.40
2023-07-04T22:55:01.914Z,2.30
2023-07-04T22:57:29.284Z,2.50
2023-07-04T22:59:56.642Z,1.80
2023-07-04T23:02:23.926Z,2.17
2023-07-04T23:04:51.160Z,2.35
2023-07-04T23:07:18.444Z,2.42
2023-07-04T23:09:50.010Z,2.15
2023-07-04T23:12:17.228Z,2.60
2023-07-04T23:14:44.562Z,2.35
2023-07-04T23:17:13.608Z,2.05
2023-07-04T23:19:41.022Z,2.45
2023-07-04T23:22:08.245Z,2.13
2023-07-04T23:24:35.452Z,2.20
2023-07-04T23:27:02.660Z,1.92
2023-07-04T23:29:29.837Z,2.17
2023-07-04T23:31:57.072Z,1.73
2023-07-04T23:34:24.312Z,2.03
2023-07-04T23:36:51.600Z,2.03
2023-07-04T23:39:20.057Z,2.10
2023-07-04T23:41:47.587Z,1.88
2023-07-04T23:44:14.812Z,2.22
2023-07-04T23:46:42.019Z,2.17
2023-07-04T23:49:09.228Z,1.70
2023-07-04T23:51:36.556Z,1.92
2023-07-04T23:54:03.813Z,2.60
2023-07-04T23:56:31.045Z,2.30
2023-07-04T23:58:58.256Z,2.15
